Terminal Aerodrome Forecast
Issued by NWS

Home | Current Version | Previous Version | Graphics & Text | Print | Product List | Glossary On
Versions: 1 2 3 4 5 6 7 8 9 10 11 12 13
430
FTUS43 KBIS 251124
TAFDIK
TAF
KDIK 251124Z 2512/2612 01009KT P6SM VCSH SCT110 SCT200
     FM251700 02010KT P6SM FEW130 SCT250
     FM260500 04006KT P6SM FEW140 FEW250=

USA.gov is the U.S. government's official web portal to all federal, state and local government web resources and services.